sensor_id;sensor_type;location;lat;lon;timestamp;temperature;humidity
25953;DHT22;13750;50.804;8.764;2024-03-29T00:01:17;7.90;70.20
25953;DHT22;13750;50.804;8.764;2024-03-29T00:03:43;7.90;70.30
25953;DHT22;13750;50.804;8.764;2024-03-29T00:06:09;7.90;70.40
25953;DHT22;13750;50.804;8.764;2024-03-29T00:08:35;7.80;70.40
25953;DHT22;13750;50.804;8.764;2024-03-29T00:11:00;7.80;70.60
25953;DHT22;13750;50.804;8.764;2024-03-29T00:13:26;7.80;70.80
25953;DHT22;13750;50.804;8.764;2024-03-29T00:15:51;7.80;70.80
25953;DHT22;13750;50.804;8.764;2024-03-29T00:18:17;7.70;70.80
25953;DHT22;13750;50.804;8.764;2024-03-29T00:20:43;7.70;70.80
25953;DHT22;13750;50.804;8.764;2024-03-29T00:23:08;7.70;71.00
25953;DHT22;13750;50.804;8.764;2024-03-29T00:25:34;7.60;71.00
25953;DHT22;13750;50.804;8.764;2024-03-29T00:27:59;7.60;71.10
25953;DHT22;13750;50.804;8.764;2024-03-29T00:30:26;7.60;71.10
25953;DHT22;13750;50.804;8.764;2024-03-29T00:32:52;7.60;71.20
25953;DHT22;13750;50.804;8.764;2024-03-29T00:35:17;7.50;71.20
25953;DHT22;13750;50.804;8.764;2024-03-29T00:37:43;7.50;71.40
25953;DHT22;13750;50.804;8.764;2024-03-29T00:40:09;7.50;71.40
25953;DHT22;13750;50.804;8.764;2024-03-29T00:42:34;7.50;71.50
25953;DHT22;13750;50.804;8.764;2024-03-29T00:45:00;7.40;71.60
25953;DHT22;13750;50.804;8.764;2024-03-29T00:47:25;7.40;71.60
25953;DHT22;13750;50.804;8.764;2024-03-29T00:49:51;7.40;71.60
25953;DHT22;13750;50.804;8.764;2024-03-29T00:52:17;7.40;71.80
25953;DHT22;13750;50.804;8.764;2024-03-29T00:54:43;7.30;71.80
25953;DHT22;13750;50.804;8.764;2024-03-29T00:57:08;7.30;72.00
25953;DHT22;13750;50.804;8.764;2024-03-29T00:59:38;7.30;72.10
25953;DHT22;13750;50.804;8.764;2024-03-29T01:02:04;7.30;71.90
25953;DHT22;13750;50.804;8.764;2024-03-29T01:04:30;7.30;71.90
25953;DHT22;13750;50.804;8.764;2024-03-29T01:06:55;7.30;72.10
25953;DHT22;13750;50.804;8.764;2024-03-29T01:09:21;7.30;72.10
25953;DHT22;13750;50.804;8.764;2024-03-29T01:11:47;7.30;72.20
25953;DHT22;13750;50.804;8.764;2024-03-29T01:14:13;7.20;72.40
25953;DHT22;13750;50.804;8.764;2024-03-29T01:16:38;7.20;72.50
25953;DHT22;13750;50.804;8.764;2024-03-29T01:19:04;7.20;72.40
25953;DHT22;13750;50.804;8.764;2024-03-29T01:21:30;7.20;72.50
25953;DHT22;13750;50.804;8.764;2024-03-29T01:23:56;7.20;72.60
25953;DHT22;13750;50.804;8.764;2024-03-29T01:26:21;7.20;72.60
25953;DHT22;13750;50.804;8.764;2024-03-29T01:28:47;7.20;72.60
25953;DHT22;13750;50.804;8.764;2024-03-29T01:31:13;7.20;72.60
25953;DHT22;13750;50.804;8.764;2024-03-29T01:33:38;7.10;72.70
25953;DHT22;13750;50.804;8.764;2024-03-29T01:36:07;7.20;72.70
25953;DHT22;13750;50.804;8.764;2024-03-29T01:38:32;7.20;72.90
25953;DHT22;13750;50.804;8.764;2024-03-29T01:40:58;7.20;73.00
25953;DHT22;13750;50.804;8.764;2024-03-29T01:43:24;7.20;73.00
25953;DHT22;13750;50.804;8.764;2024-03-29T01:45:53;7.20;73.00
25953;DHT22;13750;50.804;8.764;2024-03-29T01:48:21;7.20;73.10
25953;DHT22;13750;50.804;8.764;2024-03-29T01:50:48;7.20;73.20
25953;DHT22;13750;50.804;8.764;2024-03-29T01:53:15;7.20;73.20
25953;DHT22;13750;50.804;8.764;2024-03-29T01:55:41;7.20;73.30
25953;DHT22;13750;50.804;8.764;2024-03-29T01:58:09;7.20;73.30
25953;DHT22;13750;50.804;8.764;2024-03-29T02:00:36;7.30;73.20
25953;DHT22;13750;50.804;8.764;2024-03-29T02:03:02;7.30;73.10
25953;DHT22;13750;50.804;8.764;2024-03-29T02:05:30;7.30;73.20
25953;DHT22;13750;50.804;8.764;2024-03-29T02:07:56;7.30;73.30
25953;DHT22;13750;50.804;8.764;2024-03-29T02:10:22;7.30;73.40
25953;DHT22;13750;50.804;8.764;2024-03-29T02:12:48;7.40;73.50
25953;DHT22;13750;50.804;8.764;2024-03-29T02:15:15;7.40;73.60
25953;DHT22;13750;50.804;8.764;2024-03-29T02:17:43;7.40;73.50
25953;DHT22;13750;50.804;8.764;2024-03-29T02:20:10;7.40;73.40
25953;DHT22;13750;50.804;8.764;2024-03-29T02:22:43;7.50;73.20
25953;DHT22;13750;50.804;8.764;2024-03-29T02:25:11;7.50;73.20
25953;DHT22;13750;50.804;8.764;2024-03-29T02:27:37;7.50;73.40
25953;DHT22;13750;50.804;8.764;2024-03-29T02:30:03;7.60;73.50
25953;DHT22;13750;50.804;8.764;2024-03-29T02:32:29;7.50;73.50
25953;DHT22;13750;50.804;8.764;2024-03-29T02:34:54;7.60;73.70
25953;DHT22;13750;50.804;8.764;2024-03-29T02:37:20;7.60;73.70
25953;DHT22;13750;50.804;8.764;2024-03-29T02:39:45;7.60;73.60
25953;DHT22;13750;50.804;8.764;2024-03-29T02:42:11;7.60;73.50
25953;DHT22;13750;50.804;8.764;2024-03-29T02:44:37;7.60;73.40
25953;DHT22;13750;50.804;8.764;2024-03-29T02:47:02;7.60;73.50
25953;DHT22;13750;50.804;8.764;2024-03-29T02:49:28;7.60;73.40
25953;DHT22;13750;50.804;8.764;2024-03-29T02:51:53;7.60;73.40
25953;DHT22;13750;50.804;8.764;2024-03-29T02:54:20;7.70;73.40
25953;DHT22;13750;50.804;8.764;2024-03-29T02:56:45;7.70;73.40
25953;DHT22;13750;50.804;8.764;2024-03-29T02:59:11;7.80;73.40
25953;DHT22;13750;50.804;8.764;2024-03-29T03:01:36;7.80;73.30
25953;DHT22;13750;50.804;8.764;2024-03-29T03:04:02;7.80;73.10
25953;DHT22;13750;50.804;8.764;2024-03-29T03:06:28;7.80;73.10
25953;DHT22;13750;50.804;8.764;2024-03-29T03:08:53;7.80;73.00
25953;DHT22;13750;50.804;8.764;2024-03-29T03:11:38;7.90;73.00
25953;DHT22;13750;50.804;8.764;2024-03-29T03:14:03;7.90;73.00
25953;DHT22;13750;50.804;8.764;2024-03-29T03:16:29;7.80;73.10
25953;DHT22;13750;50.804;8.764;2024-03-29T03:18:54;7.90;73.20
25953;DHT22;13750;50.804;8.764;2024-03-29T03:21:20;7.90;73.30
25953;DHT22;13750;50.804;8.764;2024-03-29T03:23:46;7.80;73.30
25953;DHT22;13750;50.804;8.764;2024-03-29T03:26:11;7.80;73.30
25953;DHT22;13750;50.804;8.764;2024-03-29T03:28:37;7.80;73.40
25953;DHT22;13750;50.804;8.764;2024-03-29T03:31:03;7.90;73.30
25953;DHT22;13750;50.804;8.764;2024-03-29T03:33:28;7.90;73.30
25953;DHT22;13750;50.804;8.764;2024-03-29T03:35:54;7.80;73.30
25953;DHT22;13750;50.804;8.764;2024-03-29T03:38:19;7.90;73.50
25953;DHT22;13750;50.804;8.764;2024-03-29T03:40:45;7.90;73.40
25953;DHT22;13750;50.804;8.764;2024-03-29T03:43:10;7.80;73.50
25953;DHT22;13750;50.804;8.764;2024-03-29T03:45:40;7.90;73.60
25953;DHT22;13750;50.804;8.764;2024-03-29T03:48:07;7.90;73.60
25953;DHT22;13750;50.804;8.764;2024-03-29T03:50:33;7.90;73.70
25953;DHT22;13750;50.804;8.764;2024-03-29T03:52:59;7.90;73.90
25953;DHT22;13750;50.804;8.764;2024-03-29T03:55:25;7.90;73.80
25953;DHT22;13750;50.804;8.764;2024-03-29T03:57:51;7.90;73.70
25953;DHT22;13750;50.804;8.764;2024-03-29T04:00:18;7.90;73.80
25953;DHT22;13750;50.804;8.764;2024-03-29T04:02:49;7.90;73.90
25953;DHT22;13750;50.804;8.764;2024-03-29T04:05:16;8.00;73.90
25953;DHT22;13750;50.804;8.764;2024-03-29T04:07:41;8.00;73.90
25953;DHT22;13750;50.804;8.764;2024-03-29T04:10:07;8.00;74.00
25953;DHT22;13750;50.804;8.764;2024-03-29T04:12:33;8.00;74.00
25953;DHT22;13750;50.804;8.764;2024-03-29T04:14:58;8.00;74.00
25953;DHT22;13750;50.804;8.764;2024-03-29T04:17:24;8.00;74.00
25953;DHT22;13750;50.804;8.764;2024-03-29T04:19:50;8.00;73.90
25953;DHT22;13750;50.804;8.764;2024-03-29T04:22:15;8.00;74.00
25953;DHT22;13750;50.804;8.764;2024-03-29T04:24:41;8.00;74.20
25953;DHT22;13750;50.804;8.764;2024-03-29T04:27:06;7.90;74.20
25953;DHT22;13750;50.804;8.764;2024-03-29T04:29:32;8.00;74.20
25953;DHT22;13750;50.804;8.764;2024-03-29T04:31:57;8.00;74.30
25953;DHT22;13750;50.804;8.764;2024-03-29T04:34:23;8.00;74.40
25953;DHT22;13750;50.804;8.764;2024-03-29T04:36:48;8.00;74.40
25953;DHT22;13750;50.804;8.764;2024-03-29T04:39:14;8.00;74.20
25953;DHT22;13750;50.804;8.764;2024-03-29T04:41:40;8.00;74.20
25953;DHT22;13750;50.804;8.764;2024-03-29T04:44:05;8.00;74.40
25953;DHT22;13750;50.804;8.764;2024-03-29T04:46:33;8.10;74.30
25953;DHT22;13750;50.804;8.764;2024-03-29T04:48:59;8.10;74.40
25953;DHT22;13750;50.804;8.764;2024-03-29T04:51:24;8.10;74.30
25953;DHT22;13750;50.804;8.764;2024-03-29T04:53:50;8.10;74.40
25953;DHT22;13750;50.804;8.764;2024-03-29T04:56:15;8.10;74.40
25953;DHT22;13750;50.804;8.764;2024-03-29T04:58:41;8.10;74.50
25953;DHT22;13750;50.804;8.764;2024-03-29T05:01:07;8.10;74.60
25953;DHT22;13750;50.804;8.764;2024-03-29T05:03:33;8.10;74.60
25953;DHT22;13750;50.804;8.764;2024-03-29T05:05:58;8.10;74.70
25953;DHT22;13750;50.804;8.764;2024-03-29T05:08:24;8.10;74.80
25953;DHT22;13750;50.804;8.764;2024-03-29T05:10:50;8.10;74.90
25953;DHT22;13750;50.804;8.764;2024-03-29T05:13:17;8.10;74.90
25953;DHT22;13750;50.804;8.764;2024-03-29T05:15:44;8.10;74.90
25953;DHT22;13750;50.804;8.764;2024-03-29T05:18:09;8.10;75.00
25953;DHT22;13750;50.804;8.764;2024-03-29T05:20:35;8.10;75.10
25953;DHT22;13750;50.804;8.764;2024-03-29T05:23:01;8.10;75.10
25953;DHT22;13750;50.804;8.764;2024-03-29T05:25:27;8.20;75.20
25953;DHT22;13750;50.804;8.764;2024-03-29T05:27:53;8.20;75.20
25953;DHT22;13750;50.804;8.764;2024-03-29T05:30:19;8.20;75.20
25953;DHT22;13750;50.804;8.764;2024-03-29T05:32:45;8.20;75.20
25953;DHT22;13750;50.804;8.764;2024-03-29T05:35:10;8.20;75.20
25953;DHT22;13750;50.804;8.764;2024-03-29T05:37:36;8.20;75.10
25953;DHT22;13750;50.804;8.764;2024-03-29T05:40:02;8.20;75.10
25953;DHT22;13750;50.804;8.764;2024-03-29T05:42:31;8.20;75.30
25953;DHT22;13750;50.804;8.764;2024-03-29T05:44:57;8.20;75.50
25953;DHT22;13750;50.804;8.764;2024-03-29T05:47:23;8.20;75.60
25953;DHT22;13750;50.804;8.764;2024-03-29T05:49:49;8.30;75.70
25953;DHT22;13750;50.804;8.764;2024-03-29T05:52:15;8.30;76.00
25953;DHT22;13750;50.804;8.764;2024-03-29T05:54:42;8.20;76.10
25953;DHT22;13750;50.804;8.764;2024-03-29T05:57:08;8.30;76.30
25953;DHT22;13750;50.804;8.764;2024-03-29T05:59:34;8.30;76.50
25953;DHT22;13750;50.804;8.764;2024-03-29T06:02:00;8.30;76.70
25953;DHT22;13750;50.804;8.764;2024-03-29T06:04:26;8.30;77.10
25953;DHT22;13750;50.804;8.764;2024-03-29T06:07:01;8.30;77.40
25953;DHT22;13750;50.804;8.764;2024-03-29T06:09:27;8.30;77.70
25953;DHT22;13750;50.804;8.764;2024-03-29T06:11:54;8.30;77.90
25953;DHT22;13750;50.804;8.764;2024-03-29T06:14:20;8.30;78.10
25953;DHT22;13750;50.804;8.764;2024-03-29T06:17:04;8.40;78.30
25953;DHT22;13750;50.804;8.764;2024-03-29T06:19:49;8.30;78.40
25953;DHT22;13750;50.804;8.764;2024-03-29T06:22:16;8.30;78.20
25953;DHT22;13750;50.804;8.764;2024-03-29T06:24:42;8.30;78.00
25953;DHT22;13750;50.804;8.764;2024-03-29T06:27:12;8.30;78.10
25953;DHT22;13750;50.804;8.764;2024-03-29T06:29:41;8.30;78.00
25953;DHT22;13750;50.804;8.764;2024-03-29T06:32:10;8.30;78.00
25953;DHT22;13750;50.804;8.764;2024-03-29T06:34:36;8.40;77.90
25953;DHT22;13750;50.804;8.764;2024-03-29T06:37:02;8.40;77.90
25953;DHT22;13750;50.804;8.764;2024-03-29T06:39:27;8.40;77.90
25953;DHT22;13750;50.804;8.764;2024-03-29T06:41:53;8.40;77.90
25953;DHT22;13750;50.804;8.764;2024-03-29T06:44:18;8.40;77.90
25953;DHT22;13750;50.804;8.764;2024-03-29T06:46:45;8.40;78.20
25953;DHT22;13750;50.804;8.764;2024-03-29T06:49:11;8.40;78.30
25953;DHT22;13750;50.804;8.764;2024-03-29T06:51:36;8.40;78.40
25953;DHT22;13750;50.804;8.764;2024-03-29T06:54:02;8.40;78.50
25953;DHT22;13750;50.804;8.764;2024-03-29T06:56:28;8.40;78.50
25953;DHT22;13750;50.804;8.764;2024-03-29T06:58:55;8.40;78.50
25953;DHT22;13750;50.804;8.764;2024-03-29T07:01:20;8.50;78.50
25953;DHT22;13750;50.804;8.764;2024-03-29T07:03:46;8.50;78.40
25953;DHT22;13750;50.804;8.764;2024-03-29T07:06:12;8.50;78.40
25953;DHT22;13750;50.804;8.764;2024-03-29T07:08:37;8.50;78.30
25953;DHT22;13750;50.804;8.764;2024-03-29T07:11:03;8.50;78.20
25953;DHT22;13750;50.804;8.764;2024-03-29T07:13:29;8.50;78.10
25953;DHT22;13750;50.804;8.764;2024-03-29T07:15:57;8.50;78.10
25953;DHT22;13750;50.804;8.764;2024-03-29T07:18:22;8.50;78.20
25953;DHT22;13750;50.804;8.764;2024-03-29T07:20:49;8.50;78.30
25953;DHT22;13750;50.804;8.764;2024-03-29T07:23:15;8.60;78.30
25953;DHT22;13750;50.804;8.764;2024-03-29T07:25:40;8.60;78.40
25953;DHT22;13750;50.804;8.764;2024-03-29T07:28:07;8.60;78.40
25953;DHT22;13750;50.804;8.764;2024-03-29T07:30:32;8.60;78.50
25953;DHT22;13750;50.804;8.764;2024-03-29T07:32:58;8.60;78.60
25953;DHT22;13750;50.804;8.764;2024-03-29T07:35:23;8.60;78.60
25953;DHT22;13750;50.804;8.764;2024-03-29T07:37:49;8.60;78.70
25953;DHT22;13750;50.804;8.764;2024-03-29T07:40:16;8.70;78.80
25953;DHT22;13750;50.804;8.764;2024-03-29T07:42:42;8.70;79.00
25953;DHT22;13750;50.804;8.764;2024-03-29T07:45:08;8.70;79.30
25953;DHT22;13750;50.804;8.764;2024-03-29T07:47:33;8.70;79.40
25953;DHT22;13750;50.804;8.764;2024-03-29T07:49:59;8.70;79.60
25953;DHT22;13750;50.804;8.764;2024-03-29T07:52:25;8.80;79.90
25953;DHT22;13750;50.804;8.764;2024-03-29T07:54:50;8.80;80.00
25953;DHT22;13750;50.804;8.764;2024-03-29T07:57:16;8.80;80.10
25953;DHT22;13750;50.804;8.764;2024-03-29T07:59:42;8.80;80.20
25953;DHT22;13750;50.804;8.764;2024-03-29T08:02:08;8.90;80.20
25953;DHT22;13750;50.804;8.764;2024-03-29T08:04:34;8.90;80.20
25953;DHT22;13750;50.804;8.764;2024-03-29T08:07:00;8.90;80.20
25953;DHT22;13750;50.804;8.764;2024-03-29T08:09:26;8.90;80.30
25953;DHT22;13750;50.804;8.764;2024-03-29T08:11:52;8.90;80.20
25953;DHT22;13750;50.804;8.764;2024-03-29T08:14:17;8.90;80.20
25953;DHT22;13750;50.804;8.764;2024-03-29T08:16:43;9.00;80.30
25953;DHT22;13750;50.804;8.764;2024-03-29T08:19:09;9.00;80.40
25953;DHT22;13750;50.804;8.764;2024-03-29T08:21:34;9.00;80.50
25953;DHT22;13750;50.804;8.764;2024-03-29T08:24:01;9.10;80.50
25953;DHT22;13750;50.804;8.764;2024-03-29T08:26:27;9.10;80.60
25953;DHT22;13750;50.804;8.764;2024-03-29T08:28:56;9.10;80.70
25953;DHT22;13750;50.804;8.764;2024-03-29T08:31:23;9.10;80.80
25953;DHT22;13750;50.804;8.764;2024-03-29T08:33:49;9.10;80.80
25953;DHT22;13750;50.804;8.764;2024-03-29T08:36:15;9.10;80.70
25953;DHT22;13750;50.804;8.764;2024-03-29T08:38:41;9.20;80.70
25953;DHT22;13750;50.804;8.764;2024-03-29T08:41:09;9.20;80.70
25953;DHT22;13750;50.804;8.764;2024-03-29T08:43:34;9.20;80.70
25953;DHT22;13750;50.804;8.764;2024-03-29T08:46:00;9.20;80.70
25953;DHT22;13750;50.804;8.764;2024-03-29T08:48:27;9.20;80.80
25953;DHT22;13750;50.804;8.764;2024-03-29T08:50:52;9.20;80.90
25953;DHT22;13750;50.804;8.764;2024-03-29T08:53:18;9.20;80.80
25953;DHT22;13750;50.804;8.764;2024-03-29T08:55:46;9.30;80.90
25953;DHT22;13750;50.804;8.764;2024-03-29T08:58:12;9.30;80.80
25953;DHT22;13750;50.804;8.764;2024-03-29T09:00:37;9.30;80.90
25953;DHT22;13750;50.804;8.764;2024-03-29T09:03:03;9.30;80.90
25953;DHT22;13750;50.804;8.764;2024-03-29T09:05:28;9.30;80.90
25953;DHT22;13750;50.804;8.764;2024-03-29T09:07:54;9.30;80.90
25953;DHT22;13750;50.804;8.764;2024-03-29T09:10:22;9.30;80.90
25953;DHT22;13750;50.804;8.764;2024-03-29T09:12:48;9.40;81.00
25953;DHT22;13750;50.804;8.764;2024-03-29T09:15:14;9.40;81.00
25953;DHT22;13750;50.804;8.764;2024-03-29T09:17:41;9.40;81.00
25953;DHT22;13750;50.804;8.764;2024-03-29T09:20:07;9.40;81.00
25953;DHT22;13750;50.804;8.764;2024-03-29T09:22:34;9.40;80.90
25953;DHT22;13750;50.804;8.764;2024-03-29T09:24:59;9.40;80.90
25953;DHT22;13750;50.804;8.764;2024-03-29T09:27:26;9.50;80.90
25953;DHT22;13750;50.804;8.764;2024-03-29T09:29:52;9.50;81.00
25953;DHT22;13750;50.804;8.764;2024-03-29T09:32:18;9.50;81.00
25953;DHT22;13750;50.804;8.764;2024-03-29T09:34:45;9.50;81.20
25953;DHT22;13750;50.804;8.764;2024-03-29T09:37:11;9.60;81.30
25953;DHT22;13750;50.804;8.764;2024-03-29T09:39:37;9.60;81.50
25953;DHT22;13750;50.804;8.764;2024-03-29T09:42:03;9.60;81.40
25953;DHT22;13750;50.804;8.764;2024-03-29T09:44:32;9.60;81.40
25953;DHT22;13750;50.804;8.764;2024-03-29T09:47:03;9.70;81.40
25953;DHT22;13750;50.804;8.764;2024-03-29T09:49:31;9.70;81.50
25953;DHT22;13750;50.804;8.764;2024-03-29T09:52:01;9.70;81.50
25953;DHT22;13750;50.804;8.764;2024-03-29T09:54:30;9.70;81.60
25953;DHT22;13750;50.804;8.764;2024-03-29T09:56:57;9.80;81.90
25953;DHT22;13750;50.804;8.764;2024-03-29T09:59:24;9.80;81.90
25953;DHT22;13750;50.804;8.764;2024-03-29T10:01:51;9.90;82.00
25953;DHT22;13750;50.804;8.764;2024-03-29T10:04:18;9.90;82.00
25953;DHT22;13750;50.804;8.764;2024-03-29T10:06:46;9.90;82.00
25953;DHT22;13750;50.804;8.764;2024-03-29T10:09:16;9.90;81.90
25953;DHT22;13750;50.804;8.764;2024-03-29T10:11:42;9.90;81.90
25953;DHT22;13750;50.804;8.764;2024-03-29T10:14:08;10.00;81.90
25953;DHT22;13750;50.804;8.764;2024-03-29T10:16:34;10.00;81.90
25953;DHT22;13750;50.804;8.764;2024-03-29T10:18:59;10.00;81.90
25953;DHT22;13750;50.804;8.764;2024-03-29T10:21:25;10.00;81.90
25953;DHT22;13750;50.804;8.764;2024-03-29T10:23:54;10.10;82.00
25953;DHT22;13750;50.804;8.764;2024-03-29T10:26:20;10.10;82.10
25953;DHT22;13750;50.804;8.764;2024-03-29T10:28:47;10.10;82.10
25953;DHT22;13750;50.804;8.764;2024-03-29T10:31:13;10.20;82.10
25953;DHT22;13750;50.804;8.764;2024-03-29T10:33:42;10.20;82.00
25953;DHT22;13750;50.804;8.764;2024-03-29T10:36:08;10.20;81.90
25953;DHT22;13750;50.804;8.764;2024-03-29T10:38:37;10.20;81.90
25953;DHT22;13750;50.804;8.764;2024-03-29T10:41:04;10.30;81.80
25953;DHT22;13750;50.804;8.764;2024-03-29T10:43:32;10.30;81.80
25953;DHT22;13750;50.804;8.764;2024-03-29T10:46:00;10.30;81.90
25953;DHT22;13750;50.804;8.764;2024-03-29T10:48:26;10.40;81.70
25953;DHT22;13750;50.804;8.764;2024-03-29T10:50:55;10.40;81.50
25953;DHT22;13750;50.804;8.764;2024-03-29T10:53:23;10.40;81.30
25953;DHT22;13750;50.804;8.764;2024-03-29T10:55:57;10.40;81.20
25953;DHT22;13750;50.804;8.764;2024-03-29T10:58:29;10.40;81.10
25953;DHT22;13750;50.804;8.764;2024-03-29T11:00:57;10.40;81.00
25953;DHT22;13750;50.804;8.764;2024-03-29T11:03:35;10.50;80.90
25953;DHT22;13750;50.804;8.764;2024-03-29T11:06:04;10.50;80.90
25953;DHT22;13750;50.804;8.764;2024-03-29T11:08:32;10.50;80.80
25953;DHT22;13750;50.804;8.764;2024-03-29T11:11:01;10.50;80.70
25953;DHT22;13750;50.804;8.764;2024-03-29T11:13:53;10.60;80.60
25953;DHT22;13750;50.804;8.764;2024-03-29T11:16:19;10.60;80.50
25953;DHT22;13750;50.804;8.764;2024-03-29T11:18:46;10.60;80.50
25953;DHT22;13750;50.804;8.764;2024-03-29T11:21:13;10.60;80.40
25953;DHT22;13750;50.804;8.764;2024-03-29T11:23:48;10.60;80.50
25953;DHT22;13750;50.804;8.764;2024-03-29T11:26:14;10.70;80.40
25953;DHT22;13750;50.804;8.764;2024-03-29T11:28:41;10.70;80.30
25953;DHT22;13750;50.804;8.764;2024-03-29T11:31:09;10.70;80.30
25953;DHT22;13750;50.804;8.764;2024-03-29T11:36:13;10.80;80.00
25953;DHT22;13750;50.804;8.764;2024-03-29T11:38:39;10.80;79.90
25953;DHT22;13750;50.804;8.764;2024-03-29T11:41:16;10.80;80.00
25953;DHT22;13750;50.804;8.764;2024-03-29T11:43:42;10.90;79.80
25953;DHT22;13750;50.804;8.764;2024-03-29T11:46:13;10.90;79.70
25953;DHT22;13750;50.804;8.764;2024-03-29T11:48:39;10.90;79.60
25953;DHT22;13750;50.804;8.764;2024-03-29T11:51:10;10.90;79.50
25953;DHT22;13750;50.804;8.764;2024-03-29T11:53:36;10.90;79.40
25953;DHT22;13750;50.804;8.764;2024-03-29T11:56:03;10.90;79.40
25953;DHT22;13750;50.804;8.764;2024-03-29T11:58:30;10.90;79.30
25953;DHT22;13750;50.804;8.764;2024-03-29T12:00:57;10.90;79.20
25953;DHT22;13750;50.804;8.764;2024-03-29T12:03:25;10.90;79.10
25953;DHT22;13750;50.804;8.764;2024-03-29T12:05:54;10.90;79.10
25953;DHT22;13750;50.804;8.764;2024-03-29T12:08:22;10.90;79.10
25953;DHT22;13750;50.804;8.764;2024-03-29T12:10:48;10.90;79.10
25953;DHT22;13750;50.804;8.764;2024-03-29T12:13:16;10.80;79.10
25953;DHT22;13750;50.804;8.764;2024-03-29T12:15:43;10.80;79.20
25953;DHT22;13750;50.804;8.764;2024-03-29T12:18:09;10.80;79.30
25953;DHT22;13750;50.804;8.764;2024-03-29T12:20:35;10.80;79.40
25953;DHT22;13750;50.804;8.764;2024-03-29T12:23:04;10.70;79.40
25953;DHT22;13750;50.804;8.764;2024-03-29T12:25:30;10.70;79.50
25953;DHT22;13750;50.804;8.764;2024-03-29T12:27:58;10.70;79.60
25953;DHT22;13750;50.804;8.764;2024-03-29T12:30:24;10.70;79.90
25953;DHT22;13750;50.804;8.764;2024-03-29T12:41:10;10.70;80.50
25953;DHT22;13750;50.804;8.764;2024-03-29T12:44:01;10.70;80.80
25953;DHT22;13750;50.804;8.764;2024-03-29T12:46:31;10.70;80.90
25953;DHT22;13750;50.804;8.764;2024-03-29T12:49:00;10.60;80.90
25953;DHT22;13750;50.804;8.764;2024-03-29T12:51:27;10.70;81.00
25953;DHT22;13750;50.804;8.764;2024-03-29T12:53:53;10.70;81.10
25953;DHT22;13750;50.804;8.764;2024-03-29T12:56:18;10.70;81.30
25953;DHT22;13750;50.804;8.764;2024-03-29T12:58:44;10.70;81.40
25953;DHT22;13750;50.804;8.764;2024-03-29T13:01:10;10.70;81.50
25953;DHT22;13750;50.804;8.764;2024-03-29T13:03:36;10.70;81.50
25953;DHT22;13750;50.804;8.764;2024-03-29T13:06:03;10.70;81.60
25953;DHT22;13750;50.804;8.764;2024-03-29T13:08:29;10.70;81.90
25953;DHT22;13750;50.804;8.764;2024-03-29T13:10:54;10.80;82.00
25953;DHT22;13750;50.804;8.764;2024-03-29T13:13:20;10.80;81.90
25953;DHT22;13750;50.804;8.764;2024-03-29T13:15:46;10.80;81.90
25953;DHT22;13750;50.804;8.764;2024-03-29T13:18:12;10.80;82.10
25953;DHT22;13750;50.804;8.764;2024-03-29T13:20:41;10.80;82.20
25953;DHT22;13750;50.804;8.764;2024-03-29T13:23:08;10.80;82.30
25953;DHT22;13750;50.804;8.764;2024-03-29T13:25:34;10.80;82.40
25953;DHT22;13750;50.804;8.764;2024-03-29T13:27:59;10.90;82.50
25953;DHT22;13750;50.804;8.764;2024-03-29T13:30:26;10.90;82.50
25953;DHT22;13750;50.804;8.764;2024-03-29T13:32:52;10.80;82.40
25953;DHT22;13750;50.804;8.764;2024-03-29T13:35:18;10.90;82.40
25953;DHT22;13750;50.804;8.764;2024-03-29T13:37:47;10.90;82.60
25953;DHT22;13750;50.804;8.764;2024-03-29T13:40:13;10.90;82.50
25953;DHT22;13750;50.804;8.764;2024-03-29T13:42:39;10.90;82.80
25953;DHT22;13750;50.804;8.764;2024-03-29T13:45:06;10.90;82.90
25953;DHT22;13750;50.804;8.764;2024-03-29T13:47:32;10.90;83.10
25953;DHT22;13750;50.804;8.764;2024-03-29T13:49:58;10.90;83.10
25953;DHT22;13750;50.804;8.764;2024-03-29T13:52:24;11.00;83.10
25953;DHT22;13750;50.804;8.764;2024-03-29T13:54:49;11.00;83.30
25953;DHT22;13750;50.804;8.764;2024-03-29T13:57:19;11.00;83.40
25953;DHT22;13750;50.804;8.764;2024-03-29T13:59:45;11.00;83.50
25953;DHT22;13750;50.804;8.764;2024-03-29T14:02:20;11.00;83.60
25953;DHT22;13750;50.804;8.764;2024-03-29T14:04:46;11.00;83.70
25953;DHT22;13750;50.804;8.764;2024-03-29T14:07:13;11.10;83.60
25953;DHT22;13750;50.804;8.764;2024-03-29T14:09:42;11.10;83.70
25953;DHT22;13750;50.804;8.764;2024-03-29T14:12:08;11.10;83.70
25953;DHT22;13750;50.804;8.764;2024-03-29T14:14:34;11.10;83.80
25953;DHT22;13750;50.804;8.764;2024-03-29T14:16:59;11.20;83.80
25953;DHT22;13750;50.804;8.764;2024-03-29T14:19:32;11.20;83.70
25953;DHT22;13750;50.804;8.764;2024-03-29T14:21:59;11.20;83.60
25953;DHT22;13750;50.804;8.764;2024-03-29T14:24:25;11.20;83.70
25953;DHT22;13750;50.804;8.764;2024-03-29T14:26:51;11.20;83.70
25953;DHT22;13750;50.804;8.764;2024-03-29T14:29:17;11.20;83.60
25953;DHT22;13750;50.804;8.764;2024-03-29T14:31:49;11.20;83.60
25953;DHT22;13750;50.804;8.764;2024-03-29T14:34:15;11.30;83.50
25953;DHT22;13750;50.804;8.764;2024-03-29T14:36:42;11.30;83.60
25953;DHT22;13750;50.804;8.764;2024-03-29T14:39:07;11.30;83.50
25953;DHT22;13750;50.804;8.764;2024-03-29T14:41:33;11.30;83.40
25953;DHT22;13750;50.804;8.764;2024-03-29T14:44:04;11.30;83.40
25953;DHT22;13750;50.804;8.764;2024-03-29T14:46:31;11.30;83.30
25953;DHT22;13750;50.804;8.764;2024-03-29T14:48:56;11.30;83.30
25953;DHT22;13750;50.804;8.764;2024-03-29T14:51:22;11.30;83.20
25953;DHT22;13750;50.804;8.764;2024-03-29T14:53:47;11.40;83.20
25953;DHT22;13750;50.804;8.764;2024-03-29T14:56:18;11.30;83.10
25953;DHT22;13750;50.804;8.764;2024-03-29T14:58:44;11.40;83.20
25953;DHT22;13750;50.804;8.764;2024-03-29T15:01:10;11.40;83.20
25953;DHT22;13750;50.804;8.764;2024-03-29T15:03:36;11.40;83.20
25953;DHT22;13750;50.804;8.764;2024-03-29T15:06:01;11.40;83.30
25953;DHT22;13750;50.804;8.764;2024-03-29T15:08:27;11.40;83.20
25953;DHT22;13750;50.804;8.764;2024-03-29T15:11:00;11.40;83.20
25953;DHT22;13750;50.804;8.764;2024-03-29T15:13:26;11.40;83.10
25953;DHT22;13750;50.804;8.764;2024-03-29T15:15:54;11.40;83.00
25953;DHT22;13750;50.804;8.764;2024-03-29T15:18:20;11.40;83.10
25953;DHT22;13750;50.804;8.764;2024-03-29T15:20:54;11.40;83.00
25953;DHT22;13750;50.804;8.764;2024-03-29T15:23:19;11.40;82.90
25953;DHT22;13750;50.804;8.764;2024-03-29T15:25:49;11.40;83.10
25953;DHT22;13750;50.804;8.764;2024-03-29T15:28:15;11.50;83.00
25953;DHT22;13750;50.804;8.764;2024-03-29T15:30:40;11.40;83.00
25953;DHT22;13750;50.804;8.764;2024-03-29T15:33:11;11.50;83.00
25953;DHT22;13750;50.804;8.764;2024-03-29T15:35:38;11.50;82.90
25953;DHT22;13750;50.804;8.764;2024-03-29T15:38:03;11.50;82.90
25953;DHT22;13750;50.804;8.764;2024-03-29T15:40:37;11.50;82.90
25953;DHT22;13750;50.804;8.764;2024-03-29T15:43:02;11.50;83.00
25953;DHT22;13750;50.804;8.764;2024-03-29T15:45:28;11.50;83.00
25953;DHT22;13750;50.804;8.764;2024-03-29T15:47:54;11.50;83.10